sensor_id;sensor_type;location;lat;lon;timestamp;P1;durP1;ratioP1;P2;durP2;ratioP2
69529;SDS011;56727;47.188;8.840;2023-06-04T00:02:17;7.00;;;2.90;;
69529;SDS011;56727;47.188;8.840;2023-06-04T00:04:43;7.40;;;3.00;;
69529;SDS011;56727;47.188;8.840;2023-06-04T00:07:10;6.20;;;2.90;;
69529;SDS011;56727;47.188;8.840;2023-06-04T00:09:36;5.90;;;2.90;;
69529;SDS011;56727;47.188;8.840;2023-06-04T00:12:03;6.80;;;3.00;;
69529;SDS011;56727;47.188;8.840;2023-06-04T00:14:30;5.90;;;2.70;;
69529;SDS011;56727;47.188;8.840;2023-06-04T00:16:57;7.30;;;2.90;;
69529;SDS011;56727;47.188;8.840;2023-06-04T00:19:24;7.10;;;2.90;;
69529;SDS011;56727;47.188;8.840;2023-06-04T00:21:50;6.20;;;3.20;;
69529;SDS011;56727;47.188;8.840;2023-06-04T00:24:17;10.20;;;3.10;;
69529;SDS011;56727;47.188;8.840;2023-06-04T00:26:44;10.70;;;3.00;;
69529;SDS011;56727;47.188;8.840;2023-06-04T00:29:11;7.80;;;2.90;;
69529;SDS011;56727;47.188;8.840;2023-06-04T00:31:37;7.10;;;2.90;;
69529;SDS011;56727;47.188;8.840;2023-06-04T00:34:04;6.90;;;3.20;;
69529;SDS011;56727;47.188;8.840;2023-06-04T00:36:31;6.00;;;2.60;;
69529;SDS011;56727;47.188;8.840;2023-06-04T00:38:58;6.90;;;3.00;;
69529;SDS011;56727;47.188;8.840;2023-06-04T00:41:24;6.70;;;2.90;;
69529;SDS011;56727;47.188;8.840;2023-06-04T00:43:51;7.20;;;2.90;;
69529;SDS011;56727;47.188;8.840;2023-06-04T00:46:28;6.30;;;3.50;;
69529;SDS011;56727;47.188;8.840;2023-06-04T00:48:55;7.20;;;3.30;;
69529;SDS011;56727;47.188;8.840;2023-06-04T00:51:22;7.30;;;3.20;;
69529;SDS011;56727;47.188;8.840;2023-06-04T00:53:49;7.90;;;3.10;;
69529;SDS011;56727;47.188;8.840;2023-06-04T00:56:17;6.90;;;3.10;;
69529;SDS011;56727;47.188;8.840;2023-06-04T00:58:45;6.80;;;3.10;;
69529;SDS011;56727;47.188;8.840;2023-06-04T01:04:30;8.30;;;3.20;;
69529;SDS011;56727;47.188;8.840;2023-06-04T01:07:04;6.60;;;3.30;;
69529;SDS011;56727;47.188;8.840;2023-06-04T01:09:32;6.90;;;3.50;;
69529;SDS011;56727;47.188;8.840;2023-06-04T01:11:59;6.80;;;3.40;;
69529;SDS011;56727;47.188;8.840;2023-06-04T01:14:28;7.00;;;3.60;;
69529;SDS011;56727;47.188;8.840;2023-06-04T01:17:06;6.10;;;3.10;;
69529;SDS011;56727;47.188;8.840;2023-06-04T01:26:29;6.80;;;3.20;;
69529;SDS011;56727;47.188;8.840;2023-06-04T01:28:58;7.10;;;3.00;;
69529;SDS011;56727;47.188;8.840;2023-06-04T01:31:25;7.10;;;3.40;;
69529;SDS011;56727;47.188;8.840;2023-06-04T01:33:54;7.30;;;3.00;;
69529;SDS011;56727;47.188;8.840;2023-06-04T01:36:22;6.70;;;3.40;;
69529;SDS011;56727;47.188;8.840;2023-06-04T01:38:49;7.50;;;3.30;;
69529;SDS011;56727;47.188;8.840;2023-06-04T01:41:15;8.50;;;3.10;;
69529;SDS011;56727;47.188;8.840;2023-06-04T01:43:42;7.80;;;3.40;;
69529;SDS011;56727;47.188;8.840;2023-06-04T01:46:09;7.30;;;3.30;;
69529;SDS011;56727;47.188;8.840;2023-06-04T01:48:35;8.10;;;3.20;;
69529;SDS011;56727;47.188;8.840;2023-06-04T01:51:02;6.70;;;3.00;;
69529;SDS011;56727;47.188;8.840;2023-06-04T01:53:29;6.30;;;2.90;;
69529;SDS011;56727;47.188;8.840;2023-06-04T01:55:57;8.70;;;3.20;;
69529;SDS011;56727;47.188;8.840;2023-06-04T01:58:23;7.20;;;3.00;;
69529;SDS011;56727;47.188;8.840;2023-06-04T02:00:53;8.80;;;3.60;;
69529;SDS011;56727;47.188;8.840;2023-06-04T02:03:22;9.20;;;3.30;;
69529;SDS011;56727;47.188;8.840;2023-06-04T02:05:49;7.60;;;3.50;;
69529;SDS011;56727;47.188;8.840;2023-06-04T02:08:15;6.80;;;3.00;;
69529;SDS011;56727;47.188;8.840;2023-06-04T02:10:46;8.30;;;3.40;;
69529;SDS011;56727;47.188;8.840;2023-06-04T02:13:14;8.20;;;3.80;;
69529;SDS011;56727;47.188;8.840;2023-06-04T02:15:41;9.00;;;3.50;;
69529;SDS011;56727;47.188;8.840;2023-06-04T02:18:16;7.90;;;3.50;;
69529;SDS011;56727;47.188;8.840;2023-06-04T02:20:45;7.20;;;3.50;;
69529;SDS011;56727;47.188;8.840;2023-06-04T02:23:12;8.20;;;3.40;;
69529;SDS011;56727;47.188;8.840;2023-06-04T02:25:40;6.40;;;3.30;;
69529;SDS011;56727;47.188;8.840;2023-06-04T02:28:08;7.40;;;3.60;;
69529;SDS011;56727;47.188;8.840;2023-06-04T02:30:34;7.40;;;3.70;;
69529;SDS011;56727;47.188;8.840;2023-06-04T02:33:01;7.60;;;3.30;;
69529;SDS011;56727;47.188;8.840;2023-06-04T02:35:28;7.90;;;3.70;;
69529;SDS011;56727;47.188;8.840;2023-06-04T02:37:55;7.80;;;3.50;;
69529;SDS011;56727;47.188;8.840;2023-06-04T02:40:24;10.50;;;3.40;;
69529;SDS011;56727;47.188;8.840;2023-06-04T02:42:53;9.10;;;3.40;;
69529;SDS011;56727;47.188;8.840;2023-06-04T02:45:21;8.70;;;3.30;;
69529;SDS011;56727;47.188;8.840;2023-06-04T02:47:48;8.30;;;3.50;;
69529;SDS011;56727;47.188;8.840;2023-06-04T02:50:16;6.40;;;3.10;;
69529;SDS011;56727;47.188;8.840;2023-06-04T02:52:43;8.30;;;3.70;;
69529;SDS011;56727;47.188;8.840;2023-06-04T02:55:10;7.30;;;3.30;;
69529;SDS011;56727;47.188;8.840;2023-06-04T02:57:42;7.70;;;3.10;;
69529;SDS011;56727;47.188;8.840;2023-06-04T03:00:11;6.10;;;3.20;;
69529;SDS011;56727;47.188;8.840;2023-06-04T03:02:40;11.60;;;3.30;;
69529;SDS011;56727;47.188;8.840;2023-06-04T03:05:10;7.50;;;3.40;;
69529;SDS011;56727;47.188;8.840;2023-06-04T03:07:40;8.10;;;3.40;;
69529;SDS011;56727;47.188;8.840;2023-06-04T03:10:10;7.10;;;3.50;;
69529;SDS011;56727;47.188;8.840;2023-06-04T03:12:38;8.60;;;3.30;;
69529;SDS011;56727;47.188;8.840;2023-06-04T03:15:06;8.50;;;3.20;;
69529;SDS011;56727;47.188;8.840;2023-06-04T03:17:33;8.20;;;3.10;;
69529;SDS011;56727;47.188;8.840;2023-06-04T03:19:59;7.40;;;3.50;;
69529;SDS011;56727;47.188;8.840;2023-06-04T03:22:26;6.50;;;3.20;;
69529;SDS011;56727;47.188;8.840;2023-06-04T03:24:54;8.60;;;3.20;;
69529;SDS011;56727;47.188;8.840;2023-06-04T03:27:21;6.70;;;3.50;;
69529;SDS011;56727;47.188;8.840;2023-06-04T03:29:48;6.70;;;3.30;;
69529;SDS011;56727;47.188;8.840;2023-06-04T03:32:15;7.30;;;3.20;;
69529;SDS011;56727;47.188;8.840;2023-06-04T03:34:42;7.20;;;3.40;;
69529;SDS011;56727;47.188;8.840;2023-06-04T03:37:09;7.30;;;3.00;;
69529;SDS011;56727;47.188;8.840;2023-06-04T03:39:36;8.70;;;3.50;;
69529;SDS011;56727;47.188;8.840;2023-06-04T03:42:03;7.40;;;3.30;;
69529;SDS011;56727;47.188;8.840;2023-06-04T03:44:30;6.40;;;3.40;;
69529;SDS011;56727;47.188;8.840;2023-06-04T03:46:57;7.10;;;3.20;;
69529;SDS011;56727;47.188;8.840;2023-06-04T03:49:24;6.20;;;3.10;;
69529;SDS011;56727;47.188;8.840;2023-06-04T03:51:51;7.40;;;3.20;;
69529;SDS011;56727;47.188;8.840;2023-06-04T03:54:17;6.20;;;3.10;;
69529;SDS011;56727;47.188;8.840;2023-06-04T03:56:45;6.70;;;3.10;;
69529;SDS011;56727;47.188;8.840;2023-06-04T03:59:12;9.30;;;3.30;;
69529;SDS011;56727;47.188;8.840;2023-06-04T04:01:39;7.50;;;3.10;;
69529;SDS011;56727;47.188;8.840;2023-06-04T04:04:06;8.30;;;3.00;;
69529;SDS011;56727;47.188;8.840;2023-06-04T04:06:32;8.30;;;4.20;;
69529;SDS011;56727;47.188;8.840;2023-06-04T04:08:59;8.60;;;3.60;;
69529;SDS011;56727;47.188;8.840;2023-06-04T04:11:26;7.70;;;3.50;;
69529;SDS011;56727;47.188;8.840;2023-06-04T04:13:52;8.10;;;3.70;;
69529;SDS011;56727;47.188;8.840;2023-06-04T04:16:19;6.80;;;2.90;;
69529;SDS011;56727;47.188;8.840;2023-06-04T04:18:46;6.10;;;3.10;;
69529;SDS011;56727;47.188;8.840;2023-06-04T04:21:12;7.00;;;3.30;;
69529;SDS011;56727;47.188;8.840;2023-06-04T04:23:39;8.70;;;3.70;;
69529;SDS011;56727;47.188;8.840;2023-06-04T04:26:07;7.80;;;3.30;;
69529;SDS011;56727;47.188;8.840;2023-06-04T04:28:36;8.50;;;3.50;;
69529;SDS011;56727;47.188;8.840;2023-06-04T04:31:03;9.10;;;3.50;;
69529;SDS011;56727;47.188;8.840;2023-06-04T04:33:30;6.30;;;3.10;;
69529;SDS011;56727;47.188;8.840;2023-06-04T04:36:03;7.40;;;3.10;;
69529;SDS011;56727;47.188;8.840;2023-06-04T04:38:29;7.70;;;3.00;;
69529;SDS011;56727;47.188;8.840;2023-06-04T04:40:57;8.10;;;3.20;;
69529;SDS011;56727;47.188;8.840;2023-06-04T04:43:31;7.50;;;2.80;;
69529;SDS011;56727;47.188;8.840;2023-06-04T04:45:59;6.90;;;3.10;;
69529;SDS011;56727;47.188;8.840;2023-06-04T04:48:26;7.30;;;3.40;;
69529;SDS011;56727;47.188;8.840;2023-06-04T04:50:53;6.60;;;3.00;;
69529;SDS011;56727;47.188;8.840;2023-06-04T04:53:20;8.30;;;3.80;;
69529;SDS011;56727;47.188;8.840;2023-06-04T04:55:47;7.90;;;3.50;;
69529;SDS011;56727;47.188;8.840;2023-06-04T04:58:15;9.30;;;3.50;;
69529;SDS011;56727;47.188;8.840;2023-06-04T05:00:42;6.60;;;3.20;;
69529;SDS011;56727;47.188;8.840;2023-06-04T05:03:08;7.40;;;3.40;;
69529;SDS011;56727;47.188;8.840;2023-06-04T05:05:35;6.70;;;3.20;;
69529;SDS011;56727;47.188;8.840;2023-06-04T05:08:02;9.00;;;3.40;;
69529;SDS011;56727;47.188;8.840;2023-06-04T05:10:28;7.00;;;3.50;;
69529;SDS011;56727;47.188;8.840;2023-06-04T05:12:57;7.40;;;3.40;;
69529;SDS011;56727;47.188;8.840;2023-06-04T05:15:25;7.00;;;3.30;;
69529;SDS011;56727;47.188;8.840;2023-06-04T05:17:53;6.90;;;3.50;;
69529;SDS011;56727;47.188;8.840;2023-06-04T05:20:20;8.40;;;3.00;;
69529;SDS011;56727;47.188;8.840;2023-06-04T05:22:47;7.10;;;3.40;;
69529;SDS011;56727;47.188;8.840;2023-06-04T05:25:16;7.00;;;3.20;;
69529;SDS011;56727;47.188;8.840;2023-06-04T05:27:43;7.50;;;3.20;;
69529;SDS011;56727;47.188;8.840;2023-06-04T05:30:10;6.40;;;3.20;;
69529;SDS011;56727;47.188;8.840;2023-06-04T05:32:38;7.40;;;3.30;;
69529;SDS011;56727;47.188;8.840;2023-06-04T05:35:07;7.30;;;3.20;;
69529;SDS011;56727;47.188;8.840;2023-06-04T05:37:35;7.90;;;3.30;;
69529;SDS011;56727;47.188;8.840;2023-06-04T05:40:05;6.50;;;3.30;;
69529;SDS011;56727;47.188;8.840;2023-06-04T05:42:32;8.50;;;3.20;;
69529;SDS011;56727;47.188;8.840;2023-06-04T05:44:59;7.40;;;3.60;;
69529;SDS011;56727;47.188;8.840;2023-06-04T05:47:27;7.60;;;3.60;;
69529;SDS011;56727;47.188;8.840;2023-06-04T05:49:57;7.50;;;3.40;;
69529;SDS011;56727;47.188;8.840;2023-06-04T05:52:24;6.30;;;3.20;;
69529;SDS011;56727;47.188;8.840;2023-06-04T05:54:50;5.80;;;3.00;;
69529;SDS011;56727;47.188;8.840;2023-06-04T05:57:17;6.50;;;3.20;;
69529;SDS011;56727;47.188;8.840;2023-06-04T05:59:44;6.60;;;3.50;;
69529;SDS011;56727;47.188;8.840;2023-06-04T06:02:12;8.00;;;3.60;;
69529;SDS011;56727;47.188;8.840;2023-06-04T06:04:39;7.20;;;3.50;;
69529;SDS011;56727;47.188;8.840;2023-06-04T06:07:05;7.40;;;3.70;;
69529;SDS011;56727;47.188;8.840;2023-06-04T06:09:32;6.70;;;3.60;;
69529;SDS011;56727;47.188;8.840;2023-06-04T06:11:59;6.50;;;3.60;;
69529;SDS011;56727;47.188;8.840;2023-06-04T06:14:26;6.20;;;3.30;;
69529;SDS011;56727;47.188;8.840;2023-06-04T06:16:53;7.20;;;3.60;;
69529;SDS011;56727;47.188;8.840;2023-06-04T06:19:20;9.00;;;4.00;;
69529;SDS011;56727;47.188;8.840;2023-06-04T06:21:48;8.60;;;3.80;;
69529;SDS011;56727;47.188;8.840;2023-06-04T06:24:15;6.10;;;3.70;;
69529;SDS011;56727;47.188;8.840;2023-06-04T06:26:42;7.20;;;4.50;;
69529;SDS011;56727;47.188;8.840;2023-06-04T06:29:10;7.90;;;4.00;;
69529;SDS011;56727;47.188;8.840;2023-06-04T06:31:38;7.40;;;4.40;;
69529;SDS011;56727;47.188;8.840;2023-06-04T06:34:05;6.80;;;4.30;;
69529;SDS011;56727;47.188;8.840;2023-06-04T06:36:31;6.90;;;4.80;;
69529;SDS011;56727;47.188;8.840;2023-06-04T06:38:59;7.80;;;4.50;;
69529;SDS011;56727;47.188;8.840;2023-06-04T06:41:26;7.80;;;4.80;;
69529;SDS011;56727;47.188;8.840;2023-06-04T06:43:52;7.80;;;5.30;;
69529;SDS011;56727;47.188;8.840;2023-06-04T06:46:19;7.10;;;4.90;;
69529;SDS011;56727;47.188;8.840;2023-06-04T06:48:46;6.90;;;4.40;;
69529;SDS011;56727;47.188;8.840;2023-06-04T06:51:14;7.10;;;4.80;;
69529;SDS011;56727;47.188;8.840;2023-06-04T06:53:41;6.80;;;4.50;;
69529;SDS011;56727;47.188;8.840;2023-06-04T06:56:08;9.00;;;4.80;;
69529;SDS011;56727;47.188;8.840;2023-06-04T06:58:34;8.30;;;5.50;;
69529;SDS011;56727;47.188;8.840;2023-06-04T07:01:01;7.90;;;5.60;;
69529;SDS011;56727;47.188;8.840;2023-06-04T07:03:28;7.70;;;5.30;;
69529;SDS011;56727;47.188;8.840;2023-06-04T07:05:55;8.70;;;5.50;;
69529;SDS011;56727;47.188;8.840;2023-06-04T07:08:21;7.40;;;5.50;;
69529;SDS011;56727;47.188;8.840;2023-06-04T07:10:48;8.50;;;5.10;;
69529;SDS011;56727;47.188;8.840;2023-06-04T07:13:15;6.30;;;4.70;;
69529;SDS011;56727;47.188;8.840;2023-06-04T07:15:42;7.50;;;5.30;;
69529;SDS011;56727;47.188;8.840;2023-06-04T07:18:09;7.90;;;6.00;;
69529;SDS011;56727;47.188;8.840;2023-06-04T07:20:36;7.90;;;6.60;;
69529;SDS011;56727;47.188;8.840;2023-06-04T07:23:02;8.80;;;7.30;;
69529;SDS011;56727;47.188;8.840;2023-06-04T07:25:29;9.30;;;6.10;;
69529;SDS011;56727;47.188;8.840;2023-06-04T07:27:55;9.20;;;7.20;;
69529;SDS011;56727;47.188;8.840;2023-06-04T07:30:25;8.50;;;7.40;;
69529;SDS011;56727;47.188;8.840;2023-06-04T07:32:52;9.50;;;6.70;;
69529;SDS011;56727;47.188;8.840;2023-06-04T07:35:19;9.20;;;6.60;;
69529;SDS011;56727;47.188;8.840;2023-06-04T07:37:45;8.20;;;6.80;;
69529;SDS011;56727;47.188;8.840;2023-06-04T07:40:15;9.90;;;8.90;;
69529;SDS011;56727;47.188;8.840;2023-06-04T07:42:43;11.30;;;8.60;;
69529;SDS011;56727;47.188;8.840;2023-06-04T07:45:11;9.60;;;8.60;;
69529;SDS011;56727;47.188;8.840;2023-06-04T07:47:38;11.20;;;10.00;;
69529;SDS011;56727;47.188;8.840;2023-06-04T07:50:06;8.60;;;7.70;;
69529;SDS011;56727;47.188;8.840;2023-06-04T07:52:33;10.50;;;8.60;;
69529;SDS011;56727;47.188;8.840;2023-06-04T07:55:00;9.30;;;8.20;;
69529;SDS011;56727;47.188;8.840;2023-06-04T07:57:29;10.80;;;9.50;;
69529;SDS011;56727;47.188;8.840;2023-06-04T07:59:56;11.10;;;9.10;;
69529;SDS011;56727;47.188;8.840;2023-06-04T08:02:24;8.90;;;7.70;;
69529;SDS011;56727;47.188;8.840;2023-06-04T08:04:50;10.20;;;8.60;;
69529;SDS011;56727;47.188;8.840;2023-06-04T08:07:17;9.00;;;7.50;;
69529;SDS011;56727;47.188;8.840;2023-06-04T08:09:43;10.80;;;9.10;;
69529;SDS011;56727;47.188;8.840;2023-06-04T08:12:11;10.00;;;8.90;;
69529;SDS011;56727;47.188;8.840;2023-06-04T08:14:38;9.50;;;7.80;;
69529;SDS011;56727;47.188;8.840;2023-06-04T08:17:05;9.60;;;6.60;;
69529;SDS011;56727;47.188;8.840;2023-06-04T08:19:31;9.40;;;7.60;;
69529;SDS011;56727;47.188;8.840;2023-06-04T08:21:58;8.80;;;6.70;;
69529;SDS011;56727;47.188;8.840;2023-06-04T08:24:24;9.90;;;7.70;;
69529;SDS011;56727;47.188;8.840;2023-06-04T08:26:51;9.80;;;6.80;;
69529;SDS011;56727;47.188;8.840;2023-06-04T08:29:18;8.50;;;6.30;;
69529;SDS011;56727;47.188;8.840;2023-06-04T08:31:45;10.00;;;6.70;;
69529;SDS011;56727;47.188;8.840;2023-06-04T08:34:11;8.20;;;6.40;;
69529;SDS011;56727;47.188;8.840;2023-06-04T08:36:38;9.00;;;6.30;;
69529;SDS011;56727;47.188;8.840;2023-06-04T08:39:05;9.90;;;6.40;;
69529;SDS011;56727;47.188;8.840;2023-06-04T08:41:40;10.30;;;6.10;;
69529;SDS011;56727;47.188;8.840;2023-06-04T08:44:12;8.60;;;5.70;;
69529;SDS011;56727;47.188;8.840;2023-06-04T08:46:39;8.90;;;6.10;;
69529;SDS011;56727;47.188;8.840;2023-06-04T08:49:08;8.70;;;5.90;;
69529;SDS011;56727;47.188;8.840;2023-06-04T08:51:37;10.80;;;6.50;;
69529;SDS011;56727;47.188;8.840;2023-06-04T08:54:05;9.60;;;5.90;;
69529;SDS011;56727;47.188;8.840;2023-06-04T08:56:34;9.70;;;6.60;;
69529;SDS011;56727;47.188;8.840;2023-06-04T08:59:03;9.60;;;6.90;;
69529;SDS011;56727;47.188;8.840;2023-06-04T09:01:34;9.10;;;6.60;;
69529;SDS011;56727;47.188;8.840;2023-06-04T09:04:06;11.30;;;6.00;;
69529;SDS011;56727;47.188;8.840;2023-06-04T09:06:33;7.60;;;5.40;;
69529;SDS011;56727;47.188;8.840;2023-06-04T09:09:02;9.50;;;5.90;;
69529;SDS011;56727;47.188;8.840;2023-06-04T09:14:36;9.30;;;6.50;;
69529;SDS011;56727;47.188;8.840;2023-06-04T09:17:03;10.20;;;6.60;;
69529;SDS011;56727;47.188;8.840;2023-06-04T09:19:31;11.70;;;7.00;;
69529;SDS011;56727;47.188;8.840;2023-06-04T09:21:59;9.70;;;7.00;;
69529;SDS011;56727;47.188;8.840;2023-06-04T09:24:47;9.30;;;5.40;;
69529;SDS011;56727;47.188;8.840;2023-06-04T09:27:17;9.70;;;6.00;;
69529;SDS011;56727;47.188;8.840;2023-06-04T09:29:52;11.10;;;6.90;;
69529;SDS011;56727;47.188;8.840;2023-06-04T09:32:30;9.30;;;5.40;;
69529;SDS011;56727;47.188;8.840;2023-06-04T09:35:14;10.80;;;6.10;;
69529;SDS011;56727;47.188;8.840;2023-06-04T09:37:51;8.70;;;5.70;;
69529;SDS011;56727;47.188;8.840;2023-06-04T09:40:19;10.70;;;5.80;;
69529;SDS011;56727;47.188;8.840;2023-06-04T09:42:47;9.20;;;5.70;;
69529;SDS011;56727;47.188;8.840;2023-06-04T09:45:32;8.20;;;5.50;;
69529;SDS011;56727;47.188;8.840;2023-06-04T09:48:02;10.00;;;6.10;;
69529;SDS011;56727;47.188;8.840;2023-06-04T09:50:31;10.80;;;5.70;;
69529;SDS011;56727;47.188;8.840;2023-06-04T09:53:00;10.50;;;5.70;;
69529;SDS011;56727;47.188;8.840;2023-06-04T09:55:28;10.90;;;5.10;;
69529;SDS011;56727;47.188;8.840;2023-06-04T09:57:55;9.30;;;5.70;;
69529;SDS011;56727;47.188;8.840;2023-06-04T10:00:23;9.70;;;5.80;;
69529;SDS011;56727;47.188;8.840;2023-06-04T10:02:56;10.00;;;5.90;;
69529;SDS011;56727;47.188;8.840;2023-06-04T10:05:25;9.10;;;5.90;;
69529;SDS011;56727;47.188;8.840;2023-06-04T10:07:54;8.50;;;5.00;;
69529;SDS011;56727;47.188;8.840;2023-06-04T10:10:25;8.90;;;5.10;;
69529;SDS011;56727;47.188;8.840;2023-06-04T10:13:00;8.00;;;5.70;;
69529;SDS011;56727;47.188;8.840;2023-06-04T10:15:32;10.20;;;6.00;;
69529;SDS011;56727;47.188;8.840;2023-06-04T10:18:02;7.20;;;4.80;;
69529;SDS011;56727;47.188;8.840;2023-06-04T10:20:30;10.30;;;5.40;;
69529;SDS011;56727;47.188;8.840;2023-06-04T10:22:58;7.90;;;5.00;;
69529;SDS011;56727;47.188;8.840;2023-06-04T10:25:27;8.80;;;5.40;;
69529;SDS011;56727;47.188;8.840;2023-06-04T10:27:54;8.60;;;5.40;;
69529;SDS011;56727;47.188;8.840;2023-06-04T10:30:21;9.40;;;6.00;;
69529;SDS011;56727;47.188;8.840;2023-06-04T10:32:48;10.00;;;6.10;;
69529;SDS011;56727;47.188;8.840;2023-06-04T10:35:15;8.00;;;5.20;;
69529;SDS011;56727;47.188;8.840;2023-06-04T10:37:42;10.40;;;5.90;;
69529;SDS011;56727;47.188;8.840;2023-06-04T10:40:09;8.70;;;5.80;;
69529;SDS011;56727;47.188;8.840;2023-06-04T10:42:42;8.80;;;5.40;;
69529;SDS011;56727;47.188;8.840;2023-06-04T10:45:10;9.20;;;5.20;;
69529;SDS011;56727;47.188;8.840;2023-06-04T10:47:37;8.60;;;5.90;;
69529;SDS011;56727;47.188;8.840;2023-06-04T10:50:11;8.60;;;5.40;;
69529;SDS011;56727;47.188;8.840;2023-06-04T10:52:51;10.30;;;5.30;;
69529;SDS011;56727;47.188;8.840;2023-06-04T10:55:18;9.20;;;5.10;;
69529;SDS011;56727;47.188;8.840;2023-06-04T10:57:55;8.50;;;5.10;;
69529;SDS011;56727;47.188;8.840;2023-06-04T11:00:40;9.50;;;5.40;;
69529;SDS011;56727;47.188;8.840;2023-06-04T11:03:12;9.50;;;5.60;;
69529;SDS011;56727;47.188;8.840;2023-06-04T11:05:41;8.80;;;5.80;;
69529;SDS011;56727;47.188;8.840;2023-06-04T11:08:09;8.50;;;5.30;;
69529;SDS011;56727;47.188;8.840;2023-06-04T11:10:44;9.30;;;5.30;;
69529;SDS011;56727;47.188;8.840;2023-06-04T11:13:11;10.70;;;5.50;;
69529;SDS011;56727;47.188;8.840;2023-06-04T11:15:43;9.00;;;5.60;;
69529;SDS011;56727;47.188;8.840;2023-06-04T11:18:18;7.50;;;5.10;;
69529;SDS011;56727;47.188;8.840;2023-06-04T11:20:59;8.20;;;5.20;;
69529;SDS011;56727;47.188;8.840;2023-06-04T11:23:28;10.10;;;5.00;;
69529;SDS011;56727;47.188;8.840;2023-06-04T11:25:55;7.90;;;5.10;;
69529;SDS011;56727;47.188;8.840;2023-06-04T11:28:22;8.10;;;5.60;;
69529;SDS011;56727;47.188;8.840;2023-06-04T11:31:01;11.00;;;5.10;;
69529;SDS011;56727;47.188;8.840;2023-06-04T11:33:29;12.00;;;5.80;;
69529;SDS011;56727;47.188;8.840;2023-06-04T11:35:57;9.80;;;5.10;;
69529;SDS011;56727;47.188;8.840;2023-06-04T11:38:23;10.40;;;5.90;;
69529;SDS011;56727;47.188;8.840;2023-06-04T11:40:57;11.40;;;5.90;;
69529;SDS011;56727;47.188;8.840;2023-06-04T11:43:25;9.90;;;5.30;;
69529;SDS011;56727;47.188;8.840;2023-06-04T11:45:53;8.40;;;5.30;;
69529;SDS011;56727;47.188;8.840;2023-06-04T11:48:21;8.30;;;5.20;;
69529;SDS011;56727;47.188;8.840;2023-06-04T11:50:48;8.70;;;5.30;;
69529;SDS011;56727;47.188;8.840;2023-06-04T11:53:15;12.10;;;6.60;;
69529;SDS011;56727;47.188;8.840;2023-06-04T11:55:42;8.20;;;5.40;;
69529;SDS011;56727;47.188;8.840;2023-06-04T11:58:09;9.00;;;5.50;;
69529;SDS011;56727;47.188;8.840;2023-06-04T12:00:36;7.90;;;5.60;;
69529;SDS011;56727;47.188;8.840;2023-06-04T12:03:03;9.20;;;5.20;;
69529;SDS011;56727;47.188;8.840;2023-06-04T12:05:30;9.50;;;5.90;;
69529;SDS011;56727;47.188;8.840;2023-06-04T12:08:08;9.50;;;6.00;;
69529;SDS011;56727;47.188;8.840;2023-06-04T12:10:40;9.90;;;5.50;;
69529;SDS011;56727;47.188;8.840;2023-06-04T12:13:09;8.00;;;5.10;;
69529;SDS011;56727;47.188;8.840;2023-06-04T12:15:36;9.40;;;4.60;;
69529;SDS011;56727;47.188;8.840;2023-06-04T12:18:03;7.40;;;4.80;;
69529;SDS011;56727;47.188;8.840;2023-06-04T12:20:38;7.50;;;4.50;;
69529;SDS011;56727;47.188;8.840;2023-06-04T12:23:08;8.70;;;4.60;;
69529;SDS011;56727;47.188;8.840;2023-06-04T12:25:35;7.30;;;4.60;;
69529;SDS011;56727;47.188;8.840;2023-06-04T12:28:03;8.00;;;5.00;;
69529;SDS011;56727;47.188;8.840;2023-06-04T12:30:37;7.30;;;4.80;;
69529;SDS011;56727;47.188;8.840;2023-06-04T12:33:05;10.50;;;4.90;;
69529;SDS011;56727;47.188;8.840;2023-06-04T12:35:33;9.20;;;5.10;;
69529;SDS011;56727;47.188;8.840;2023-06-04T12:38:02;8.00;;;5.10;;
69529;SDS011;56727;47.188;8.840;2023-06-04T12:40:31;8.60;;;4.90;;
69529;SDS011;56727;47.188;8.840;2023-06-04T12:42:57;10.10;;;5.40;;
69529;SDS011;56727;47.188;8.840;2023-06-04T12:45:24;7.50;;;4.40;;
69529;SDS011;56727;47.188;8.840;2023-06-04T12:47:51;7.90;;;4.70;;
69529;SDS011;56727;47.188;8.840;2023-06-04T12:50:17;7.90;;;4.60;;
69529;SDS011;56727;47.188;8.840;2023-06-04T12:52:44;8.80;;;4.60;;
69529;SDS011;56727;47.188;8.840;2023-06-04T12:55:11;9.30;;;4.70;;
69529;SDS011;56727;47.188;8.840;2023-06-04T12:57:37;9.20;;;4.40;;
69529;SDS011;56727;47.188;8.840;2023-06-04T13:00:05;8.10;;;4.60;;
69529;SDS011;56727;47.188;8.840;2023-06-04T13:02:33;7.50;;;4.40;;
69529;SDS011;56727;47.188;8.840;2023-06-04T13:05:00;8.30;;;4.60;;
69529;SDS011;56727;47.188;8.840;2023-06-04T13:07:27;7.80;;;4.40;;
69529;SDS011;56727;47.188;8.840;2023-06-04T13:09:53;7.30;;;4.60;;
69529;SDS011;56727;47.188;8.840;2023-06-04T13:12:20;7.80;;;4.50;;
69529;SDS011;56727;47.188;8.840;2023-06-04T13:14:46;7.60;;;4.20;;
69529;SDS011;56727;47.188;8.840;2023-06-04T13:17:13;7.10;;;4.40;;
69529;SDS011;56727;47.188;8.840;2023-06-04T13:19:40;9.40;;;4.70;;
69529;SDS011;56727;47.188;8.840;2023-06-04T13:22:06;10.30;;;4.40;;
69529;SDS011;56727;47.188;8.840;2023-06-04T13:24:35;8.40;;;4.60;;
69529;SDS011;56727;47.188;8.840;2023-06-04T13:27:02;7.50;;;4.40;;
69529;SDS011;56727;47.188;8.840;2023-06-04T13:29:28;8.00;;;4.50;;
69529;SDS011;56727;47.188;8.840;2023-06-04T13:31:59;6.50;;;4.30;;
69529;SDS011;56727;47.188;8.840;2023-06-04T13:34:26;7.80;;;4.60;;
69529;SDS011;56727;47.188;8.840;2023-06-04T13:36:54;9.10;;;5.20;;
69529;SDS011;56727;47.188;8.840;2023-06-04T13:39:21;8.80;;;4.90;;
69529;SDS011;56727;47.188;8.840;2023-06-04T13:41:48;7.50;;;4.30;;
69529;SDS011;56727;47.188;8.840;2023-06-04T13:44:15;8.30;;;4.70;;
69529;SDS011;56727;47.188;8.840;2023-06-04T13:46:41;9.20;;;5.20;;
69529;SDS011;56727;47.188;8.840;2023-06-04T13:49:08;8.10;;;5.00;;
69529;SDS011;56727;47.188;8.840;2023-06-04T13:51:35;8.20;;;4.60;;
69529;SDS011;56727;47.188;8.840;2023-06-04T13:54:02;9.10;;;4.70;;
69529;SDS011;56727;47.188;8.840;2023-06-04T13:56:29;7.80;;;4.30;;
69529;SDS011;56727;47.188;8.840;2023-06-04T13:58:56;7.80;;;5.10;;
69529;SDS011;56727;47.188;8.840;2023-06-04T14:01:22;6.70;;;4.00;;
69529;SDS011;56727;47.188;8.840;2023-06-04T14:03:49;6.80;;;3.80;;
69529;SDS011;56727;47.188;8.840;2023-06-04T14:06:16;7.30;;;4.10;;
69529;SDS011;56727;47.188;8.840;2023-06-04T14:08:42;8.00;;;4.10;;
69529;SDS011;56727;47.188;8.840;2023-06-04T14:11:09;9.20;;;4.10;;
69529;SDS011;56727;47.188;8.840;2023-06-04T14:13:37;10.50;;;4.50;;
69529;SDS011;56727;47.188;8.840;2023-06-04T14:16:05;8.90;;;4.40;;
69529;SDS011;56727;47.188;8.840;2023-06-04T14:18:31;8.60;;;4.00;;
69529;SDS011;56727;47.188;8.840;2023-06-04T14:20:58;6.80;;;4.10;;
69529;SDS011;56727;47.188;8.840;2023-06-04T14:23:25;7.70;;;4.30;;
69529;SDS011;56727;47.188;8.840;2023-06-04T14:25:51;8.50;;;4.20;;
69529;SDS011;56727;47.188;8.840;2023-06-04T14:28:18;8.30;;;4.50;;
69529;SDS011;56727;47.188;8.840;2023-06-04T14:30:46;7.50;;;3.80;;
69529;SDS011;56727;47.188;8.840;2023-06-04T14:33:13;8.50;;;4.10;;
69529;SDS011;56727;47.188;8.840;2023-06-04T14:35:40;9.20;;;3.90;;
69529;SDS011;56727;47.188;8.840;2023-06-04T14:38:13;7.10;;;3.80;;
69529;SDS011;56727;47.188;8.840;2023-06-04T14:40:40;7.50;;;4.20;;
69529;SDS011;56727;47.188;8.840;2023-06-04T14:43:12;7.70;;;3.90;;
69529;SDS011;56727;47.188;8.840;2023-06-04T14:45:39;7.20;;;3.80;;
69529;SDS011;56727;47.188;8.840;2023-06-04T14:48:06;7.40;;;4.30;;
69529;SDS011;56727;47.188;8.840;2023-06-04T14:50:33;9.10;;;4.20;;
69529;SDS011;56727;47.188;8.840;2023-06-04T14:53:00;7.10;;;3.90;;
69529;SDS011;56727;47.188;8.840;2023-06-04T14:55:27;8.00;;;4.00;;
69529;SDS011;56727;47.188;8.840;2023-06-04T14:57:54;6.40;;;3.30;;
69529;SDS011;56727;47.188;8.840;2023-06-04T15:00:20;7.70;;;4.30;;
69529;SDS011;56727;47.188;8.840;2023-06-04T15:02:47;9.00;;;3.70;;
69529;SDS011;56727;47.188;8.840;2023-06-04T15:05:13;7.20;;;4.00;;